Time;durP1;ratioP1;P1;durP2;ratioP2;P2;SDS_P1;SDS_P2;PMS_P1;PMS_P2;Temp;Humidity;BMP_temperature;BMP_pressure;BME280_temperature;BME280_humidity;BME280_pressure;Samples;Min_cycle;Max_cycle;Signal;HPM_P1;HPM_P2
2022/12/30 00:00:01;;;;;;;5.05;2.10;;;;;;;5.98;84.09;100376.16;7396738;19;20019;-71
2022/12/30 00:02:30;;;;;;;4.45;1.70;;;;;;;5.98;84.50;100381.38;7401242;19;20010;-71
2022/12/30 00:04:58;;;;;;;3.85;1.65;;;;;;;5.96;84.74;100381.34;7400871;19;20422;-71
2022/12/30 00:07:26;;;;;;;4.38;2.03;;;;;;;5.98;85.02;100390.06;7401328;19;20090;-71
2022/12/30 00:09:57;;;;;;;6.22;1.67;;;;;;;6.00;85.08;100400.47;7400787;19;20442;-69
2022/12/30 00:34:23;;;;;;;5.43;1.80;;;;;;;6.16;84.94;100435.91;7394835;19;20009;-71
2022/12/30 00:36:52;;;;;;;3.80;1.42;;;;;;;6.17;85.00;100432.44;7398169;19;20095;-71
2022/12/30 00:39:21;;;;;;;4.47;2.10;;;;;;;6.18;84.36;100435.94;7398024;19;20019;-71
2022/12/30 00:44:33;;;;;;;5.30;1.80;;;;;;;6.20;83.57;100444.56;7400692;19;20014;-71
2022/12/30 00:47:02;;;;;;;5.78;1.35;;;;;;;6.21;83.65;100448.06;7398291;19;20094;-71
2022/12/30 00:57:36;;;;;;;6.53;2.08;;;;;;;6.21;83.39;100445.47;7400736;19;20011;-71
2022/12/30 01:00:06;;;;;;;3.47;1.55;;;;;;;6.22;83.68;100462.78;7398770;19;20026;-71
2022/12/30 01:02:35;;;;;;;6.13;1.63;;;;;;;6.19;83.39;100453.25;7399612;19;20428;-72
2022/12/30 01:05:03;;;;;;;4.32;1.40;;;;;;;6.19;83.09;100464.56;7399785;19;20018;-72
2022/12/30 01:07:32;;;;;;;7.00;1.33;;;;;;;6.17;83.26;100460.25;7399747;19;20027;-71
2022/12/30 01:10:01;;;;;;;5.90;1.80;;;;;;;6.16;83.24;100468.94;7399070;19;20089;-71
2022/12/30 01:12:31;;;;;;;6.95;1.88;;;;;;;6.16;83.08;100481.94;7395938;19;20022;-71
2022/12/30 01:15:02;;;;;;;6.47;1.65;;;;;;;6.16;83.33;100481.94;7399305;19;20441;-71
2022/12/30 01:17:33;;;;;;;6.10;1.50;;;;;;;6.14;82.77;100492.38;7399883;19;20035;-71
2022/12/30 01:20:03;;;;;;;7.03;1.50;;;;;;;6.13;82.95;100493.25;7398330;19;20086;-71
2022/12/30 01:22:32;;;;;;;7.13;1.20;;;;;;;6.14;82.89;100509.75;7399319;19;20014;-72
2022/12/30 01:25:01;;;;;;;4.53;1.50;;;;;;;6.14;82.45;100501.94;7399077;19;20078;-72
2022/12/30 01:27:30;;;;;;;7.88;1.50;;;;;;;6.15;81.90;100512.31;7399148;19;20070;-71
2022/12/30 01:29:58;;;;;;;5.97;1.10;;;;;;;6.16;82.24;100508.00;7396768;19;20019;-71
2022/12/30 01:32:33;;;;;;;4.28;1.38;;;;;;;6.20;82.33;100514.91;7399027;19;20082;-71
2022/12/30 01:35:01;;;;;;;6.10;1.52;;;;;;;6.24;82.01;100511.41;7397070;19;20021;-71
2022/12/30 01:37:30;;;;;;;7.55;1.27;;;;;;;6.26;81.72;100514.88;7398357;19;20433;-72
2022/12/30 01:39:58;;;;;;;5.57;1.63;;;;;;;6.29;81.96;100530.50;7397114;19;20393;-72
2022/12/30 01:42:29;;;;;;;7.55;1.25;;;;;;;6.28;81.41;100530.47;7398641;19;20018;-71
2022/12/30 01:45:00;;;;;;;7.35;1.63;;;;;;;6.30;80.64;100539.16;7399019;19;20024;-71
2022/12/30 01:47:37;;;;;;;5.15;1.55;;;;;;;6.30;81.13;100547.81;7398898;19;20018;-71
2022/12/30 01:50:17;;;;;;;4.97;1.40;;;;;;;6.31;80.76;100553.94;7398802;19;20085;-72
2022/12/30 01:52:51;;;;;;;9.00;1.55;;;;;;;6.31;80.47;100561.75;7398292;19;20421;-71
2022/12/30 01:55:24;;;;;;;5.63;1.20;;;;;;;6.28;79.89;100565.22;7397460;19;20026;-71
2022/12/30 01:57:54;;;;;;;6.55;1.48;;;;;;;6.27;80.40;100567.81;7396569;19;20074;-71
2022/12/30 02:00:23;;;;;;;7.97;1.77;;;;;;;6.28;80.48;100565.22;7396360;19;20081;-71
2022/12/30 02:02:56;;;;;;;7.18;1.70;;;;;;;6.28;80.10;100575.66;7398018;19;20010;-72
2022/12/30 02:05:27;;;;;;;8.43;1.27;;;;;;;6.29;79.83;100579.13;7397073;19;20480;-71
2022/12/30 02:08:02;;;;;;;8.68;1.75;;;;;;;6.29;79.79;100580.00;7396377;19;20089;-71
2022/12/30 02:10:31;;;;;;;6.30;1.50;;;;;;;6.32;80.00;100579.09;7398177;19;20019;-70
2022/12/30 02:13:00;;;;;;;5.50;1.50;;;;;;;6.34;80.11;100582.56;7398379;19;20021;-70
2022/12/30 02:15:33;;;;;;;13.43;1.60;;;;;;;6.35;79.29;100587.75;7396680;19;20082;-71
2022/12/30 02:18:13;;;;;;;4.85;1.17;;;;;;;6.36;78.63;100592.09;7397251;19;20014;-70
2022/12/30 02:21:14;;;;;;;5.90;1.10;;;;;;;6.39;78.99;100579.94;7396114;19;20070;-71
2022/12/30 02:24:26;;;;;;;5.30;1.27;;;;;;;6.41;79.18;100589.47;7396769;19;20500;-71
2022/12/30 02:27:17;;;;;;;6.32;1.42;;;;;;;6.43;79.72;100586.84;7395745;19;20088;-70
2022/12/30 02:30:18;;;;;;;5.28;1.15;;;;;;;6.45;79.19;100592.91;7394807;19;20414;-71
2022/12/30 02:33:07;;;;;;;7.90;1.52;;;;;;;6.46;79.08;100592.91;7397100;19;20094;-70
2022/12/30 02:35:47;;;;;;;3.17;1.05;;;;;;;6.49;79.76;100589.41;7396755;19;20136;-69
2022/12/30 02:38:27;;;;;;;8.52;1.40;;;;;;;6.50;79.42;100597.19;7397219;19;20014;-68
2022/12/30 02:46:42;;;;;;;8.48;1.58;;;;;;;6.54;79.63;100590.22;7395534;19;20074;-68
2022/12/30 02:49:15;;;;;;;3.95;1.17;;;;;;;6.55;79.43;100598.94;7396161;19;20437;-69
2022/12/30 02:54:27;;;;;;;7.32;1.80;;;;;;;6.56;79.15;100593.69;7396337;19;20014;-69
2022/12/30 02:56:55;;;;;;;5.75;1.50;;;;;;;6.56;79.82;100593.69;7394732;19;20019;-69
2022/12/30 03:05:35;;;;;;;4.45;1.67;;;;;;;6.51;78.96;100598.09;7391987;19;20006;-69
2022/12/30 03:08:16;;;;;;;6.38;1.42;;;;;;;6.47;78.53;100609.38;7395530;19;20555;-68
2022/12/30 03:13:38;;;;;;;4.07;1.35;;;;;;;6.40;79.98;100618.16;7395342;19;20481;-69
2022/12/30 03:16:13;;;;;;;6.82;1.38;;;;;;;6.38;79.96;100620.72;7393481;19;20433;-69
2022/12/30 03:18:42;;;;;;;5.82;1.42;;;;;;;6.35;80.13;100631.19;7395190;19;20015;-69
2022/12/30 03:21:14;;;;;;;7.88;1.50;;;;;;;6.28;79.61;100640.78;7393677;19;20086;-69
2022/12/30 03:29:10;;;;;;;8.45;1.77;;;;;;;6.13;80.30;100656.47;7394314;19;20015;-69
2022/12/30 03:31:39;;;;;;;7.20;1.70;;;;;;;6.05;80.27;100653.06;7395342;19;20082;-69
2022/12/30 03:34:08;;;;;;;9.07;1.75;;;;;;;6.02;80.57;100656.53;7395045;19;20018;-69
2022/12/30 03:36:43;;;;;;;4.15;1.25;;;;;;;5.93;79.73;100653.97;7400726;19;20045;-69
2022/12/30 03:39:17;;;;;;;7.15;1.33;;;;;;;5.88;80.34;100665.25;7402847;19;20094;-69
2022/12/30 03:41:47;;;;;;;6.82;1.73;;;;;;;5.82;80.83;100661.81;7402984;19;20414;-69
2022/12/30 03:44:16;;;;;;;5.03;0.95;;;;;;;5.77;80.93;100669.63;7402679;19;20076;-69
2022/12/30 03:46:46;;;;;;;7.30;2.25;;;;;;;5.70;80.85;100658.38;7400325;19;20094;-70
2022/12/30 03:49:15;;;;;;;6.90;1.85;;;;;;;5.70;81.22;100657.50;7402378;19;20090;-69
2022/12/30 03:51:46;;;;;;;8.82;1.55;;;;;;;5.65;80.64;100670.53;7409858;19;20089;-70
2022/12/30 03:54:15;;;;;;;7.45;1.50;;;;;;;5.64;81.10;100666.19;7407423;19;20086;-70
2022/12/30 03:56:43;;;;;;;4.15;1.35;;;;;;;5.62;81.16;100667.06;7400317;19;20090;-70
2022/12/30 03:59:11;;;;;;;5.18;1.60;;;;;;;5.59;80.86;100667.94;7398757;19;20165;-70
2022/12/30 04:01:40;;;;;;;5.07;1.08;;;;;;;5.60;81.18;100671.41;7398858;19;20015;-69
2022/12/30 04:04:08;;;;;;;6.97;1.63;;;;;;;5.58;80.95;100668.81;7401511;19;20015;-69
2022/12/30 04:06:37;;;;;;;6.32;1.50;;;;;;;5.59;81.23;100673.16;7399783;19;20091;-69
2022/12/30 04:09:08;;;;;;;5.63;1.55;;;;;;;5.60;80.91;100685.28;7401252;19;20022;-69
2022/12/30 04:11:36;;;;;;;10.13;1.75;;;;;;;5.60;81.32;100679.19;7402061;19;20035;-70
2022/12/30 04:14:05;;;;;;;5.95;1.50;;;;;;;5.59;80.80;100680.09;7401586;19;20024;-69
2022/12/30 04:16:33;;;;;;;7.20;1.25;;;;;;;5.57;80.81;100680.06;7398712;19;20015;-69
2022/12/30 04:19:01;;;;;;;10.98;1.67;;;;;;;5.53;80.60;100684.44;7401401;19;20165;-70
2022/12/30 04:21:30;;;;;;;6.70;1.08;;;;;;;5.50;80.57;100666.22;7398668;19;20085;-70
2022/12/30 04:23:58;;;;;;;8.80;1.52;;;;;;;5.49;81.20;100671.44;7398185;19;20424;-70
2022/12/30 04:26:29;;;;;;;7.95;1.85;;;;;;;5.48;81.05;100677.50;7399536;19;20023;-70
2022/12/30 04:28:58;;;;;;;4.68;1.10;;;;;;;5.45;81.31;100673.19;7400223;19;20082;-70
2022/12/30 04:31:26;;;;;;;6.35;1.33;;;;;;;5.43;81.17;100682.69;7401462;19;20032;-70
2022/12/30 04:33:56;;;;;;;9.93;1.58;;;;;;;5.41;81.64;100689.66;7400429;19;20545;-69
2022/12/30 04:36:24;;;;;;;3.90;1.30;;;;;;;5.38;81.69;100687.06;7398764;19;20544;-69
2022/12/30 04:38:53;;;;;;;8.82;1.30;;;;;;;5.36;81.92;100697.47;7400597;19;20019;-69
2022/12/30 04:41:21;;;;;;;7.45;1.83;;;;;;;5.34;81.56;100691.38;7398346;19;20501;-69
2022/12/30 04:43:52;;;;;;;5.25;1.50;;;;;;;5.34;81.91;100704.41;7400275;19;20015;-70
2022/12/30 04:46:21;;;;;;;8.38;1.48;;;;;;;5.32;81.79;100700.94;7395900;19;20549;-69
2022/12/30 04:48:49;;;;;;;9.57;1.60;;;;;;;5.32;82.10;100713.06;7400313;19;20074;-70
2022/12/30 04:51:17;;;;;;;8.20;1.75;;;;;;;5.30;82.25;100707.88;7400328;19;20021;-70
2022/12/30 04:53:46;;;;;;;8.43;1.35;;;;;;;5.28;82.04;100707.03;7399622;19;20418;-70
2022/12/30 04:56:14;;;;;;;8.93;1.60;;;;;;;5.27;82.47;100705.28;7397440;19;20031;-69
2022/12/30 04:58:43;;;;;;;6.10;1.33;;;;;;;5.25;81.89;100704.41;7399815;19;20097;-70
2022/12/30 05:01:14;;;;;;;7.60;1.63;;;;;;;5.24;81.96;100713.06;7397059;19;20023;-69
2022/12/30 05:03:42;;;;;;;6.30;1.40;;;;;;;5.23;82.27;100711.34;7397648;19;20070;-70
2022/12/30 05:06:11;;;;;;;9.77;1.80;;;;;;;5.23;82.34;100726.94;7398342;19;20383;-70
2022/12/30 05:08:39;;;;;;;11.10;1.77;;;;;;;5.21;82.34;100726.09;7399524;19;20019;-70
2022/12/30 05:11:08;;;;;;;4.60;1.23;;;;;;;5.19;82.52;100735.63;7399470;19;20085;-70
2022/12/30 05:13:36;;;;;;;11.75;1.40;;;;;;;5.16;82.82;100733.03;7399340;19;20085;-70
2022/12/30 05:16:04;;;;;;;10.13;1.70;;;;;;;5.14;82.99;100748.63;7397819;19;20513;-70
2022/12/30 05:18:35;;;;;;;11.90;1.80;;;;;;;5.12;82.76;100744.28;7399275;19;20434;-69
2022/12/30 05:21:04;;;;;;;8.60;1.55;;;;;;;5.10;83.11;100754.69;7397519;19;20536;-68
2022/12/30 05:26:17;;;;;;;6.60;1.30;;;;;;;5.02;83.08;100746.88;7398285;19;20019;-68
2022/12/30 05:28:47;;;;;;;6.47;1.55;;;;;;;5.01;83.29;100749.50;7398693;19;20028;-70
2022/12/30 05:31:17;;;;;;;8.00;1.35;;;;;;;4.96;83.19;100752.06;7398650;19;20510;-70
2022/12/30 05:33:49;;;;;;;5.32;1.70;;;;;;;4.93;83.20;100762.47;7399340;19;20074;-70
2022/12/30 05:36:17;;;;;;;7.18;1.75;;;;;;;4.92;83.47;100770.28;7396801;19;20090;-70
2022/12/30 05:38:46;;;;;;;8.50;1.58;;;;;;;4.87;83.50;100775.47;7398552;19;20027;-69
2022/12/30 05:41:15;;;;;;;8.00;1.70;;;;;;;4.84;83.54;100772.84;7396868;19;20481;-70
2022/12/30 05:43:43;;;;;;;9.10;1.92;;;;;;;4.80;83.46;100777.19;7396210;19;20078;-69
2022/12/30 05:46:12;;;;;;;9.60;1.55;;;;;;;4.77;83.79;100773.72;7396743;19;20019;-69
2022/12/30 05:48:40;;;;;;;7.38;1.92;;;;;;;4.73;84.01;100783.22;7398460;19;20035;-69
2022/12/30 05:51:11;;;;;;;7.00;1.52;;;;;;;4.68;84.13;100785.81;7397872;19;20505;-69
2022/12/30 05:53:39;;;;;;;4.72;1.75;;;;;;;4.67;84.27;100797.06;7397839;19;20410;-69
2022/12/30 05:56:09;;;;;;;7.05;2.13;;;;;;;4.65;84.03;100803.13;7396013;19;20070;-69
2022/12/30 05:58:37;;;;;;;12.85;1.67;;;;;;;4.60;84.20;100810.91;7397093;19;20082;-69
2022/12/30 06:01:06;;;;;;;6.82;1.40;;;;;;;4.59;84.07;100808.28;7395243;19;20505;-70
2022/12/30 06:03:35;;;;;;;11.13;2.25;;;;;;;4.57;84.34;100822.16;7398171;19;20093;-70
2022/12/30 06:06:06;;;;;;;8.88;1.70;;;;;;;4.56;84.21;100814.34;7395617;19;20045;-70
2022/12/30 06:08:38;;;;;;;8.95;1.95;;;;;;;4.53;83.91;100816.94;7396150;19;20019;-70
2022/12/30 06:11:08;;;;;;;5.97;1.30;;;;;;;4.52;84.14;100823.00;7395514;19;20078;-70
2022/12/30 06:13:36;;;;;;;10.05;1.73;;;;;;;4.52;84.01;100825.59;7397603;19;20014;-69
2022/12/30 06:16:05;;;;;;;10.77;1.90;;;;;;;4.50;83.64;100828.19;7396315;19;20022;-69
2022/12/30 06:18:35;;;;;;;7.53;1.42;;;;;;;4.51;84.19;100834.25;7395439;19;20037;-69
2022/12/30 06:21:04;;;;;;;7.80;1.50;;;;;;;4.51;84.27;100842.03;7396562;19;20022;-70
2022/12/30 06:23:33;;;;;;;9.88;1.65;;;;;;;4.50;84.18;100837.69;7397406;19;20086;-70
2022/12/30 06:26:04;;;;;;;7.43;1.60;;;;;;;4.49;84.11;100843.78;7395413;19;20014;-70
2022/12/30 06:28:32;;;;;;;7.90;2.67;;;;;;;4.48;84.14;100847.22;7397160;19;20043;-69
2022/12/30 06:31:01;;;;;;;7.65;1.75;;;;;;;4.46;84.18;100846.34;7394552;19;20074;-69
2022/12/30 06:33:29;;;;;;;6.78;1.40;;;;;;;4.43;83.93;100844.59;7396936;19;20434;-70
2022/12/30 06:35:58;;;;;;;4.07;1.55;;;;;;;4.42;84.24;100849.78;7395890;19;20351;-70
2022/12/30 06:38:26;;;;;;;9.48;1.85;;;;;;;4.38;84.30;100843.72;7396663;19;20022;-69
2022/12/30 06:40:55;;;;;;;5.68;2.17;;;;;;;4.37;83.95;100847.16;7395817;19;20078;-70
2022/12/30 06:43:26;;;;;;;9.25;2.42;;;;;;;4.37;84.24;100850.66;7396237;19;20011;-70
2022/12/30 06:45:55;;;;;;;5.55;1.70;;;;;;;4.36;84.56;100850.59;7395030;19;20432;-69
2022/12/30 06:48:23;;;;;;;10.63;1.80;;;;;;;4.36;84.79;100854.09;7396323;19;20028;-69
2022/12/30 06:50:52;;;;;;;5.93;1.50;;;;;;;4.36;84.59;100863.59;7394841;19;20018;-70
2022/12/30 06:53:20;;;;;;;6.20;1.52;;;;;;;4.35;84.83;100869.69;7397587;19;20082;-71
2022/12/30 06:55:49;;;;;;;7.03;1.92;;;;;;;4.33;84.86;100876.59;7395075;19;20445;-71
2022/12/30 06:58:17;;;;;;;11.45;2.20;;;;;;;4.31;84.83;100876.59;7396139;19;20074;-70
2022/12/30 07:00:49;;;;;;;9.55;2.30;;;;;;;4.29;85.08;100867.91;7395229;19;20426;-71
2022/12/30 07:03:17;;;;;;;11.10;2.70;;;;;;;4.28;84.97;100880.88;7397174;19;20426;-71
2022/12/30 07:05:45;;;;;;;8.32;2.08;;;;;;;4.22;85.16;100885.19;7395080;19;20106;-71
2022/12/30 07:08:14;;;;;;;12.25;2.08;;;;;;;4.19;84.90;100887.75;7394198;19;20081;-71
2022/12/30 07:10:42;;;;;;;8.52;1.98;;;;;;;4.15;84.81;100887.72;7394793;19;20031;-71
2022/12/30 07:13:13;;;;;;;6.13;1.40;;;;;;;4.11;84.88;100893.75;7395590;19;20031;-71
2022/12/30 07:15:41;;;;;;;6.30;1.48;;;;;;;4.06;84.94;100897.19;7395159;19;20090;-71
2022/12/30 07:18:12;;;;;;;8.07;1.40;;;;;;;4.02;84.69;100898.03;7395395;19;20086;-71
2022/12/30 07:20:41;;;;;;;9.05;1.85;;;;;;;3.98;85.06;100898.88;7394894;19;20078;-71
2022/12/30 07:23:09;;;;;;;8.90;1.90;;;;;;;3.97;85.08;100904.91;7395339;19;20019;-71
2022/12/30 07:25:39;;;;;;;6.70;1.48;;;;;;;3.92;85.10;100915.25;7394389;19;20377;-70
2022/12/30 07:28:07;;;;;;;15.13;2.00;;;;;;;3.92;85.19;100916.97;7395019;19;20082;-70
2022/12/30 07:30:49;;;;;;;6.25;1.63;;;;;;;3.90;85.04;100921.28;7392511;19;20385;-70
2022/12/30 07:33:20;;;;;;;6.85;1.90;;;;;;;3.86;84.91;100915.19;7395243;19;20014;-71
2022/12/30 07:35:49;;;;;;;9.90;1.77;;;;;;;3.85;85.28;100908.25;7394619;19;20086;-71
2022/12/30 07:38:18;;;;;;;6.95;1.52;;;;;;;3.86;85.58;100914.34;7394906;19;20029;-70
2022/12/30 07:40:46;;;;;;;7.63;1.80;;;;;;;3.83;85.39;100924.66;7394668;19;20082;-71
2022/12/30 07:43:14;;;;;;;9.70;1.67;;;;;;;3.83;85.44;100929.84;7393096;19;20082;-71
2022/12/30 07:45:43;;;;;;;10.60;1.58;;;;;;;3.84;85.46;100944.59;7393709;19;20094;-72
2022/12/30 07:48:11;;;;;;;6.70;1.92;;;;;;;3.83;85.45;100946.31;7394795;19;20035;-71
2022/12/30 07:50:43;;;;;;;10.70;1.35;;;;;;;3.83;85.36;100948.03;7394400;19;20014;-71
2022/12/30 07:53:11;;;;;;;6.47;1.70;;;;;;;3.83;85.45;100955.81;7395101;19;20082;-71
2022/12/30 07:55:41;;;;;;;7.57;1.65;;;;;;;3.80;85.37;100956.66;7393467;19;20074;-70
2022/12/30 07:58:10;;;;;;;11.02;1.85;;;;;;;3.84;85.38;100962.75;7394511;19;20019;-71
2022/12/30 08:00:39;;;;;;;9.63;1.88;;;;;;;3.84;85.37;100961.03;7392191;19;20019;-71
2022/12/30 08:03:07;;;;;;;14.70;2.05;;;;;;;3.85;85.59;100954.13;7391851;19;20544;-71
2022/12/30 08:05:36;;;;;;;9.13;1.63;;;;;;;3.86;85.15;100955.84;7393507;19;20236;-70
2022/12/30 08:08:07;;;;;;;8.25;1.55;;;;;;;3.82;85.37;100941.97;7393972;19;20363;-71
2022/12/30 08:10:36;;;;;;;10.32;1.92;;;;;;;3.89;85.22;100942.91;7392659;19;20015;-72
2022/12/30 08:13:04;;;;;;;5.05;1.27;;;;;;;3.90;85.38;100942.94;7393676;19;20090;-72
2022/12/30 08:15:33;;;;;;;5.15;1.45;;;;;;;3.94;85.74;100937.75;7392729;19;20018;-71
2022/12/30 08:18:01;;;;;;;8.07;1.85;;;;;;;3.97;85.69;100953.34;7393772;19;20070;-71
2022/12/30 08:20:30;;;;;;;9.23;2.67;;;;;;;4.00;85.71;100958.59;7396447;19;20549;-72
2022/12/30 08:22:58;;;;;;;7.30;2.10;;;;;;;4.04;85.56;100958.63;7398759;19;20028;-71
2022/12/30 08:25:29;;;;;;;9.90;2.30;;;;;;;4.07;85.71;100958.66;7399962;19;20497;-72
2022/12/30 08:27:58;;;;;;;7.53;2.55;;;;;;;4.10;85.59;100963.00;7400552;19;20015;-70
2022/12/30 08:30:26;;;;;;;8.60;2.05;;;;;;;4.14;85.68;100974.28;7399476;19;20085;-71
2022/12/30 08:32:55;;;;;;;9.07;2.40;;;;;;;4.15;85.66;100971.69;7400491;19;20074;-71
2022/12/30 08:35:23;;;;;;;5.18;1.77;;;;;;;4.18;85.28;100973.44;7400092;19;20015;-71
2022/12/30 08:37:52;;;;;;;10.75;1.95;;;;;;;4.19;84.89;100975.19;7400380;19;20040;-71
2022/12/30 08:40:21;;;;;;;9.43;2.10;;;;;;;4.20;85.09;100977.78;7400458;19;20082;-71
2022/12/30 08:42:52;;;;;;;8.15;1.73;;;;;;;4.21;84.17;100969.16;7397841;19;20078;-71
2022/12/30 08:45:20;;;;;;;8.48;1.70;;;;;;;4.26;84.81;100973.50;7399492;19;20423;-71
2022/12/30 08:47:48;;;;;;;7.00;2.15;;;;;;;4.29;84.64;100978.72;7399818;19;20489;-70
2022/12/30 08:50:17;;;;;;;6.55;1.58;;;;;;;4.31;84.41;100969.22;7397750;19;20094;-71
2022/12/30 08:52:45;;;;;;;7.50;1.70;;;;;;;4.36;84.57;100972.69;7400278;19;20019;-70
2022/12/30 08:55:14;;;;;;;6.75;1.42;;;;;;;4.39;84.24;100973.59;7399408;19;20493;-71
2022/12/30 08:57:42;;;;;;;9.23;1.30;;;;;;;4.44;84.06;100981.44;7397544;19;20082;-71
2022/12/30 09:00:15;;;;;;;9.07;1.45;;;;;;;4.50;83.86;100976.28;7400456;19;20018;-71
2022/12/30 09:02:43;;;;;;;14.20;1.90;;;;;;;4.53;83.60;100981.50;7398519;19;20094;-71
2022/12/30 09:05:11;;;;;;;7.85;1.40;;;;;;;4.60;83.34;100972.03;7399141;19;20488;-71
2022/12/30 09:07:40;;;;;;;9.68;1.27;;;;;;;4.67;83.41;100968.59;7399398;19;20078;-71
2022/12/30 09:10:11;;;;;;;8.73;1.40;;;;;;;4.72;83.24;100969.47;7398860;19;20018;-71
2022/12/30 09:12:40;;;;;;;9.73;1.70;;;;;;;4.78;83.24;100971.28;7398980;19;20070;-71
2022/12/30 09:15:10;;;;;;;4.63;1.45;;;;;;;4.82;82.92;100956.56;7398806;19;20028;-72
2022/12/30 09:17:41;;;;;;;6.95;1.80;;;;;;;4.90;81.71;100952.25;7399416;19;20077;-71
2022/12/30 09:20:11;;;;;;;8.48;1.50;;;;;;;4.97;82.41;100950.56;7399623;19;20015;-71
2022/12/30 09:22:39;;;;;;;8.85;2.15;;;;;;;5.03;81.81;100953.19;7397252;19;20540;-72
2022/12/30 09:25:09;;;;;;;7.70;1.60;;;;;;;5.08;81.16;100954.09;7398839;19;20081;-71
2022/12/30 09:27:39;;;;;;;8.43;1.85;;;;;;;5.16;81.84;100956.72;7396462;19;20027;-71
2022/12/30 09:30:09;;;;;;;7.13;1.70;;;;;;;5.22;81.04;100961.94;7396318;19;20480;-72
2022/12/30 09:32:40;;;;;;;8.10;1.67;;;;;;;5.28;80.67;100958.50;7398043;19;20014;-71
2022/12/30 09:35:10;;;;;;;8.10;1.80;;;;;;;5.35;81.16;100952.44;7398565;19;20035;-71
2022/12/30 09:37:38;;;;;;;8.25;2.42;;;;;;;5.40;80.86;100953.31;7398480;19;20018;-71
2022/12/30 09:40:09;;;;;;;10.77;2.05;;;;;;;5.46;79.97;100958.56;7398512;19;20030;-70
2022/12/30 09:45:28;;;;;;;6.43;2.20;;;;;;;5.61;80.50;100977.66;7398180;19;20037;-71
2022/12/30 09:48:04;;;;;;;7.03;2.45;;;;;;;5.65;80.08;100955.97;7398807;19;20035;-71
2022/12/30 09:50:40;;;;;;;8.00;1.75;;;;;;;5.69;80.37;100961.19;7398499;19;20019;-71
2022/12/30 09:53:16;;;;;;;6.88;1.55;;;;;;;5.74;80.02;100957.72;7398045;19;20011;-71
2022/12/30 09:55:51;;;;;;;6.63;1.33;;;;;;;5.81;80.17;100962.09;7397488;19;20026;-70
2022/12/30 09:58:26;;;;;;;14.60;2.15;;;;;;;5.85;80.12;100956.00;7398200;19;20015;-70
2022/12/30 10:00:55;;;;;;;10.15;1.85;;;;;;;5.91;79.94;100962.97;7398469;19;20015;-71
2022/12/30 10:03:28;;;;;;;10.20;1.60;;;;;;;5.95;79.37;100949.97;7395999;19;20093;-71
2022/12/30 10:06:14;;;;;;;8.95;2.33;;;;;;;6.00;77.95;100948.25;7396672;19;20435;-71
2022/12/30 10:09:12;;;;;;;11.75;1.75;;;;;;;6.06;77.69;100936.09;7397876;19;20020;-71
2022/12/30 10:11:54;;;;;;;11.30;1.75;;;;;;;6.11;79.04;100937.81;7393378;19;20018;-71
2022/12/30 10:14:30;;;;;;;5.35;1.33;;;;;;;6.17;77.74;100947.41;7397088;19;20083;-70
2022/12/30 10:17:11;;;;;;;8.07;1.60;;;;;;;6.23;77.99;100942.19;7395408;19;20014;-70
2022/12/30 10:19:53;;;;;;;4.45;1.63;;;;;;;6.29;75.79;100949.13;7397149;19;20493;-72
2022/12/30 10:22:29;;;;;;;8.57;2.28;;;;;;;6.35;76.35;100942.16;7395785;19;20082;-71
2022/12/30 10:25:16;;;;;;;8.48;1.35;;;;;;;6.41;76.53;100943.00;7396959;19;20035;-73
2022/12/30 10:27:49;;;;;;;8.43;1.80;;;;;;;6.47;76.95;100937.78;7397313;19;20083;-71
2022/12/30 10:30:19;;;;;;;7.35;1.60;;;;;;;6.53;76.78;100935.19;7395921;19;20498;-71
2022/12/30 10:32:53;;;;;;;9.07;1.48;;;;;;;6.58;75.96;100933.44;7397109;19;20074;-71
2022/12/30 10:35:26;;;;;;;8.35;1.70;;;;;;;6.64;75.01;100930.81;7396532;19;20074;-70
2022/12/30 10:38:01;;;;;;;6.90;1.67;;;;;;;6.70;75.09;100911.69;7396938;19;20082;-71
2022/12/30 10:40:40;;;;;;;7.75;1.40;;;;;;;6.76;74.52;100922.09;7396573;19;20027;-70
2022/12/30 10:43:23;;;;;;;11.05;1.80;;;;;;;6.82;75.88;100913.38;7393902;19;20014;-70
2022/12/30 10:46:06;;;;;;;6.63;1.45;;;;;;;6.87;76.32;100901.19;7395156;19;20429;-70
2022/12/30 10:49:08;;;;;;;8.73;2.00;;;;;;;6.91;74.53;100909.88;7395567;19;20423;-70
2022/12/30 10:51:39;;;;;;;7.72;1.85;;;;;;;6.97;76.00;100905.47;7396200;19;20026;-70
2022/12/30 10:54:13;;;;;;;11.95;4.05;;;;;;;7.03;75.63;100901.09;7394177;19;20070;-70
2022/12/30 10:56:43;;;;;;;9.52;3.15;;;;;;;7.06;76.17;100901.13;7394076;19;20450;-70
2022/12/30 10:59:15;;;;;;;6.72;1.52;;;;;;;7.08;75.93;100902.84;7395836;19;20422;-71
2022/12/30 11:01:47;;;;;;;7.78;2.88;;;;;;;7.11;75.74;100897.59;7396243;19;20036;-70
2022/12/30 11:04:34;;;;;;;7.50;1.75;;;;;;;7.15;74.26;100899.34;7395133;19;20078;-71
2022/12/30 11:07:07;;;;;;;6.43;1.30;;;;;;;7.18;74.21;100901.06;7392937;19;20062;-71
2022/12/30 11:09:36;;;;;;;10.82;1.40;;;;;;;7.24;74.14;100892.31;7395742;19;20016;-71
2022/12/30 11:14:58;;;;;;;6.97;1.60;;;;;;;7.30;72.33;100882.72;7395445;19;20203;-71
2022/12/30 11:17:29;;;;;;;9.95;1.55;;;;;;;7.37;73.90;100885.28;7394242;19;20022;-72
2022/12/30 11:20:04;;;;;;;7.55;2.08;;;;;;;7.41;73.95;100881.78;7395464;19;20015;-71
2022/12/30 11:22:36;;;;;;;11.90;1.58;;;;;;;7.45;73.35;100876.50;7394811;19;20015;-71
2022/12/30 11:25:17;;;;;;;8.55;1.45;;;;;;;7.49;73.25;100873.03;7394808;19;20033;-70
2022/12/30 11:27:50;;;;;;;5.78;2.03;;;;;;;7.55;73.69;100874.72;7394037;19;20485;-71
2022/12/30 11:30:28;;;;;;;7.35;2.05;;;;;;;7.61;73.89;100879.03;7393557;19;20054;-71
2022/12/30 11:32:58;;;;;;;8.23;1.80;;;;;;;7.64;73.97;100872.03;7394382;19;20103;-70
2022/12/30 11:35:42;;;;;;;4.03;1.80;;;;;;;7.70;73.48;100878.13;7394402;19;20031;-71
2022/12/30 11:38:33;;;;;;;6.38;2.10;;;;;;;7.74;73.04;100880.66;7394515;19;20095;-70
2022/12/30 11:41:27;;;;;;;8.52;1.73;;;;;;;7.79;71.14;100885.88;7393868;19;20493;-72
2022/12/30 11:44:15;;;;;;;6.20;1.52;;;;;;;7.83;72.18;100880.63;7392709;19;20022;-70
2022/12/30 11:46:46;;;;;;;10.57;2.20;;;;;;;7.84;73.59;100868.41;7393149;19;20037;-70
2022/12/30 11:49:33;;;;;;;10.27;1.77;;;;;;;7.92;71.97;100868.34;7393077;19;20031;-70
2022/12/30 11:52:10;;;;;;;9.90;2.28;;;;;;;7.96;72.87;100860.47;7393155;19;20082;-71
2022/12/30 11:54:47;;;;;;;11.50;1.90;;;;;;;7.97;70.51;100856.97;7394499;19;20090;-71
2022/12/30 11:57:27;;;;;;;8.93;1.77;;;;;;;8.01;71.68;100849.09;7398505;19;20078;-70
2022/12/30 12:00:05;;;;;;;6.22;1.60;;;;;;;8.04;72.87;100851.66;7400545;19;20017;-70
2022/12/30 12:02:36;;;;;;;7.07;1.77;;;;;;;8.06;72.46;100853.41;7399940;19;20394;-71
2022/12/30 12:05:07;;;;;;;11.73;1.70;;;;;;;8.08;72.44;100849.03;7398208;19;20019;-71
2022/12/30 12:07:40;;;;;;;6.97;2.25;;;;;;;8.10;72.47;100835.94;7400516;19;20418;-71
2022/12/30 12:10:19;;;;;;;7.95;2.17;;;;;;;8.13;72.16;100834.16;7400502;19;20498;-72
2022/12/30 12:12:54;;;;;;;5.07;1.65;;;;;;;8.17;72.26;100834.16;7400950;19;20378;-71
2022/12/30 12:15:30;;;;;;;7.15;1.77;;;;;;;8.18;70.56;100833.28;7400395;19;20078;-70
2022/12/30 12:18:02;;;;;;;9.75;2.33;;;;;;;8.20;72.10;100827.16;7400747;19;20039;-70
2022/12/30 12:20:36;;;;;;;7.25;1.90;;;;;;;8.24;72.20;100817.50;7401184;19;20018;-70
2022/12/30 12:23:17;;;;;;;7.38;1.30;;;;;;;8.28;71.25;100825.28;7399189;19;20086;-70
2022/12/30 12:26:01;;;;;;;9.10;1.92;;;;;;;8.32;71.41;100816.53;7398849;19;20018;-71
2022/12/30 12:28:29;;;;;;;8.18;2.20;;;;;;;8.35;71.66;100806.94;7399984;19;20078;-71
2022/12/30 12:31:32;;;;;;;11.40;1.73;;;;;;;8.38;70.23;100805.16;7398035;19;20074;-70
2022/12/30 12:34:08;;;;;;;6.50;1.40;;;;;;;8.41;70.37;100809.47;7400388;19;20101;-70
2022/12/30 12:36:44;;;;;;;12.23;3.22;;;;;;;8.42;71.30;100800.75;7398198;19;20077;-70
2022/12/30 12:39:16;;;;;;;8.82;2.60;;;;;;;8.45;71.60;100801.59;7400148;19;20087;-71
2022/12/30 12:41:56;;;;;;;5.68;1.35;;;;;;;8.46;69.84;100794.63;7398776;19;20082;-70
2022/12/30 12:44:51;;;;;;;7.68;1.77;;;;;;;8.46;71.22;100792.88;7397081;19;20011;-71
2022/12/30 12:47:40;;;;;;;5.97;1.60;;;;;;;8.53;70.75;100798.91;7395119;19;20035;-70
2022/12/30 12:50:26;;;;;;;4.85;1.50;;;;;;;8.54;69.49;100800.63;7399370;19;20018;-71
2022/12/30 12:53:11;;;;;;;8.63;1.85;;;;;;;8.53;68.74;100793.69;7398784;19;20425;-71
2022/12/30 12:56:05;;;;;;;7.57;2.15;;;;;;;8.52;69.21;100785.84;7398365;19;20031;-71
2022/12/30 12:58:46;;;;;;;13.67;4.30;;;;;;;8.50;70.39;100783.25;7398197;19;20553;-71